CheckWX is a tool to help pilots better visualize weather data.  It is not intended as a substitute for an official pre-flight weather briefing.

06:00:21 UTC

KCPS METAR
St Louis Downtown Airport
Cahokia/St Louis, Illinois, USA
Current

1 hour ago

KCPS 240453Z AUTO 19008KT 10SM CLR 13/01 A2947 RMK AO2 SLP977 T01280011
Observed
Feb-24 @ 04:53 UTC
Wind
  • 190° at 8 KTS
Visibility
10 SM
Flight Rules
VFR
Cloud Levels
  • Clear skies
Temperature
13°C / 55°F
Dewpoint
C / 34°F
Humidity
44%
Altimeter
29.47" Hg
Pressure
997.7 hPa
Previous

2 hours ago

KCPS 240353Z 20005KT 10SM CLR 13/06 A2950 RMK AO2 SLP989 T01280056
Observed
Feb-24 @ 03:53 UTC
Wind
  • 200° at 5 KTS
Visibility
10 SM
Flight Rules
VFR
Cloud Levels
  • Clear skies
Temperature
13°C / 55°F
Dewpoint
C / 43°F
Humidity
63%
Altimeter
29.5" Hg
Pressure
998.9 hPa
Previous

3 hours ago

KCPS 240253Z 22003KT 10SM CLR 13/12 A2949 RMK AO2 SLP987 T01330117 53002
Observed
Feb-24 @ 02:53 UTC
Wind
  • 220° at 3 KTS
Visibility
10 SM
Flight Rules
VFR
Cloud Levels
  • Clear skies
Temperature
13°C / 55°F
Dewpoint
12°C / 54°F
Humidity
94%
Altimeter
29.49" Hg
Pressure
998.7 hPa